sensor_id;sensor_type;location;lat;lon;timestamp;pressure;altitude;pressure_sealevel;temperature;humidity
74103;BME280;62853;46.166;3.640;2023-02-15T00:01:47;102752.56;;;1.69;100.00
74103;BME280;62853;46.166;3.640;2023-02-15T00:04:14;102756.84;;;1.65;100.00
74103;BME280;62853;46.166;3.640;2023-02-15T00:06:40;102758.53;;;1.60;100.00
74103;BME280;62853;46.166;3.640;2023-02-15T00:09:10;102753.19;;;1.51;100.00
74103;BME280;62853;46.166;3.640;2023-02-15T00:11:38;102752.19;;;1.41;100.00
74103;BME280;62853;46.166;3.640;2023-02-15T00:14:16;102752.22;;;1.44;100.00
74103;BME280;62853;46.166;3.640;2023-02-15T00:16:44;102747.84;;;1.40;100.00
74103;BME280;62853;46.166;3.640;2023-02-15T00:19:14;102746.06;;;1.36;100.00
74103;BME280;62853;46.166;3.640;2023-02-15T00:21:40;102741.69;;;1.34;100.00
74103;BME280;62853;46.166;3.640;2023-02-15T00:24:09;102735.66;;;1.36;100.00
74103;BME280;62853;46.166;3.640;2023-02-15T00:26:38;102733.16;;;1.42;100.00
74103;BME280;62853;46.166;3.640;2023-02-15T00:29:03;102729.72;;;1.42;100.00
74103;BME280;62853;46.166;3.640;2023-02-15T00:31:32;102740.09;;;1.45;100.00
74103;BME280;62853;46.166;3.640;2023-02-15T00:34:06;102740.84;;;1.35;100.00
74103;BME280;62853;46.166;3.640;2023-02-15T00:36:32;102725.91;;;1.20;100.00
74103;BME280;62853;46.166;3.640;2023-02-15T00:38:57;102721.53;;;1.16;100.00
74103;BME280;62853;46.166;3.640;2023-02-15T00:41:23;102725.03;;;1.18;100.00
74103;BME280;62853;46.166;3.640;2023-02-15T00:43:48;102730.16;;;1.15;100.00
74103;BME280;62853;46.166;3.640;2023-02-15T00:46:14;102722.31;;;1.10;100.00
74103;BME280;62853;46.166;3.640;2023-02-15T00:48:39;102720.56;;;1.09;100.00
74103;BME280;62853;46.166;3.640;2023-02-15T00:51:05;102710.25;;;1.14;100.00
74103;BME280;62853;46.166;3.640;2023-02-15T00:53:30;102715.47;;;1.15;100.00
74103;BME280;62853;46.166;3.640;2023-02-15T00:55:57;102721.47;;;1.11;100.00
74103;BME280;62853;46.166;3.640;2023-02-15T00:58:22;102711.03;;;1.08;100.00
74103;BME280;62853;46.166;3.640;2023-02-15T01:00:48;102712.84;;;1.14;100.00
74103;BME280;62853;46.166;3.640;2023-02-15T01:03:17;102702.38;;;1.07;100.00
74103;BME280;62853;46.166;3.640;2023-02-15T01:05:43;102691.03;;;1.01;100.00
74103;BME280;62853;46.166;3.640;2023-02-15T01:08:11;102698.78;;;0.99;100.00
74103;BME280;62853;46.166;3.640;2023-02-15T01:10:37;102701.38;;;0.98;100.00
74103;BME280;62853;46.166;3.640;2023-02-15T01:13:03;102697.84;;;0.94;100.00
74103;BME280;62853;46.166;3.640;2023-02-15T01:15:28;102695.19;;;0.88;100.00
74103;BME280;62853;46.166;3.640;2023-02-15T01:17:54;102692.59;;;0.88;100.00
74103;BME280;62853;46.166;3.640;2023-02-15T01:20:22;102693.47;;;0.88;100.00
74103;BME280;62853;46.166;3.640;2023-02-15T01:22:48;102683.00;;;0.84;100.00
74103;BME280;62853;46.166;3.640;2023-02-15T01:25:17;102694.25;;;0.86;100.00
74103;BME280;62853;46.166;3.640;2023-02-15T01:27:46;102678.66;;;0.81;100.00
74103;BME280;62853;46.166;3.640;2023-02-15T01:30:12;102679.41;;;0.76;100.00
74103;BME280;62853;46.166;3.640;2023-02-15T01:32:38;102678.53;;;0.73;100.00
74103;BME280;62853;46.166;3.640;2023-02-15T01:35:04;102681.06;;;0.70;100.00
74103;BME280;62853;46.166;3.640;2023-02-15T01:37:30;102682.78;;;0.70;100.00
74103;BME280;62853;46.166;3.640;2023-02-15T01:39:56;102673.09;;;0.58;100.00
74103;BME280;62853;46.166;3.640;2023-02-15T01:42:25;102676.56;;;0.60;100.00
74103;BME280;62853;46.166;3.640;2023-02-15T01:44:56;102683.50;;;0.60;100.00
74103;BME280;62853;46.166;3.640;2023-02-15T01:50:10;102689.59;;;0.63;100.00
74103;BME280;62853;46.166;3.640;2023-02-15T01:52:45;102671.34;;;0.57;100.00
74103;BME280;62853;46.166;3.640;2023-02-15T01:55:17;102662.81;;;0.63;100.00
74103;BME280;62853;46.166;3.640;2023-02-15T01:57:44;102663.66;;;0.63;100.00
74103;BME280;62853;46.166;3.640;2023-02-15T02:00:11;102660.22;;;0.63;100.00
74103;BME280;62853;46.166;3.640;2023-02-15T02:02:38;102660.13;;;0.58;100.00
74103;BME280;62853;46.166;3.640;2023-02-15T02:05:07;102666.97;;;0.53;100.00
74103;BME280;62853;46.166;3.640;2023-02-15T02:07:35;102668.69;;;0.54;100.00
74103;BME280;62853;46.166;3.640;2023-02-15T02:10:06;102660.88;;;0.51;100.00
74103;BME280;62853;46.166;3.640;2023-02-15T02:12:33;102656.66;;;0.56;100.00
74103;BME280;62853;46.166;3.640;2023-02-15T02:15:00;102662.91;;;0.70;100.00
74103;BME280;62853;46.166;3.640;2023-02-15T02:35:01;102651.28;;;0.45;100.00
74103;BME280;62853;46.166;3.640;2023-02-15T02:37:32;102635.63;;;0.38;100.00
74103;BME280;62853;46.166;3.640;2023-02-15T02:40:20;102637.34;;;0.39;100.00
74103;BME280;62853;46.166;3.640;2023-02-15T02:42:58;102637.34;;;0.39;100.00
74103;BME280;62853;46.166;3.640;2023-02-15T02:48:04;102632.88;;;0.30;100.00
74103;BME280;62853;46.166;3.640;2023-02-15T02:50:31;102633.75;;;0.29;100.00
74103;BME280;62853;46.166;3.640;2023-02-15T02:52:58;102631.13;;;0.27;100.00
74103;BME280;62853;46.166;3.640;2023-02-15T02:55:30;102635.56;;;0.34;100.00
74103;BME280;62853;46.166;3.640;2023-02-15T02:58:05;102623.47;;;0.35;100.00
74103;BME280;62853;46.166;3.640;2023-02-15T03:00:39;102630.31;;;0.31;100.00
74103;BME280;62853;46.166;3.640;2023-02-15T03:03:12;102631.16;;;0.29;100.00
74103;BME280;62853;46.166;3.640;2023-02-15T03:05:44;102632.84;;;0.28;100.00
74103;BME280;62853;46.166;3.640;2023-02-15T03:08:12;102608.47;;;0.15;100.00
74103;BME280;62853;46.166;3.640;2023-02-15T03:10:46;102624.03;;;0.18;100.00
74103;BME280;62853;46.166;3.640;2023-02-15T03:13:13;102618.88;;;0.20;100.00
74103;BME280;62853;46.166;3.640;2023-02-15T03:15:39;102612.06;;;0.24;100.00
74103;BME280;62853;46.166;3.640;2023-02-15T03:18:28;102611.25;;;0.28;100.00
74103;BME280;62853;46.166;3.640;2023-02-15T03:20:58;102607.03;;;0.34;100.00
74103;BME280;62853;46.166;3.640;2023-02-15T03:23:27;102597.59;;;0.38;100.00
74103;BME280;62853;46.166;3.640;2023-02-15T03:25:58;102605.28;;;0.33;100.00
74103;BME280;62853;46.166;3.640;2023-02-15T03:28:57;102605.19;;;0.26;100.00
74103;BME280;62853;46.166;3.640;2023-02-15T03:31:26;102609.41;;;0.21;100.00
74103;BME280;62853;46.166;3.640;2023-02-15T03:34:00;102598.94;;;0.14;100.00
74103;BME280;62853;46.166;3.640;2023-02-15T03:36:52;102595.50;;;0.14;100.00
74103;BME280;62853;46.166;3.640;2023-02-15T03:44:50;102587.09;;;0.30;100.00
74103;BME280;62853;46.166;3.640;2023-02-15T03:47:23;102590.56;;;0.29;100.00
74103;BME280;62853;46.166;3.640;2023-02-15T03:49:54;102587.91;;;0.26;100.00
74103;BME280;62853;46.166;3.640;2023-02-15T03:52:23;102581.78;;;0.21;100.00
74103;BME280;62853;46.166;3.640;2023-02-15T03:54:50;102579.94;;;0.14;100.00
74103;BME280;62853;46.166;3.640;2023-02-15T03:57:22;102584.22;;;0.10;100.00
74103;BME280;62853;46.166;3.640;2023-02-15T04:00:17;102588.50;;;0.10;100.00
74103;BME280;62853;46.166;3.640;2023-02-15T04:05:40;102585.84;;;0.05;100.00
74103;BME280;62853;46.166;3.640;2023-02-15T04:08:06;102581.38;;;-0.02;100.00
74103;BME280;62853;46.166;3.640;2023-02-15T04:10:31;102578.84;;;0.01;100.00
74103;BME280;62853;46.166;3.640;2023-02-15T04:13:16;102590.09;;;0.03;100.00
74103;BME280;62853;46.166;3.640;2023-02-15T04:15:41;102586.66;;;0.03;100.00
74103;BME280;62853;46.166;3.640;2023-02-15T04:18:25;102582.28;;;-0.02;100.00
74103;BME280;62853;46.166;3.640;2023-02-15T04:21:09;102586.53;;;-0.04;100.00
74103;BME280;62853;46.166;3.640;2023-02-15T04:23:53;102579.47;;;-0.12;100.00
74103;BME280;62853;46.166;3.640;2023-02-15T04:26:37;102587.31;;;-0.09;100.00
74103;BME280;62853;46.166;3.640;2023-02-15T04:29:02;102577.88;;;-0.06;100.00
74103;BME280;62853;46.166;3.640;2023-02-15T04:31:28;102577.00;;;-0.06;100.00
74103;BME280;62853;46.166;3.640;2023-02-15T04:33:53;102599.47;;;-0.07;100.00
74103;BME280;62853;46.166;3.640;2023-02-15T04:36:18;102592.63;;;-0.03;100.00
74103;BME280;62853;46.166;3.640;2023-02-15T04:38:44;102588.28;;;-0.03;100.00
74103;BME280;62853;46.166;3.640;2023-02-15T04:41:09;102588.41;;;0.04;100.00
74103;BME280;62853;46.166;3.640;2023-02-15T04:43:36;102583.19;;;0.02;100.00
74103;BME280;62853;46.166;3.640;2023-02-15T04:46:01;102588.28;;;-0.03;100.00
74103;BME280;62853;46.166;3.640;2023-02-15T04:48:27;102584.69;;;-0.11;100.00
74103;BME280;62853;46.166;3.640;2023-02-15T04:50:52;102578.75;;;-0.07;100.00
74103;BME280;62853;46.166;3.640;2023-02-15T04:53:18;102576.97;;;-0.08;100.00
74103;BME280;62853;46.166;3.640;2023-02-15T04:55:43;102563.91;;;-0.14;100.00
74103;BME280;62853;46.166;3.640;2023-02-15T04:58:08;102562.19;;;-0.15;100.00
74103;BME280;62853;46.166;3.640;2023-02-15T05:00:36;102565.56;;;-0.19;100.00
74103;BME280;62853;46.166;3.640;2023-02-15T05:03:02;102555.09;;;-0.25;100.00
74103;BME280;62853;46.166;3.640;2023-02-15T05:05:27;102560.34;;;-0.21;100.00
74103;BME280;62853;46.166;3.640;2023-02-15T05:07:53;102562.22;;;-0.12;100.00
74103;BME280;62853;46.166;3.640;2023-02-15T05:10:19;102552.75;;;-0.11;100.00
74103;BME280;62853;46.166;3.640;2023-02-15T05:12:44;102558.84;;;-0.08;100.00
74103;BME280;62853;46.166;3.640;2023-02-15T05:15:09;102565.78;;;-0.07;100.00
74103;BME280;62853;46.166;3.640;2023-02-15T05:17:35;102557.97;;;-0.10;100.00
74103;BME280;62853;46.166;3.640;2023-02-15T05:20:00;102560.59;;;-0.07;100.00
74103;BME280;62853;46.166;3.640;2023-02-15T05:22:28;102561.56;;;-0.02;100.00
74103;BME280;62853;46.166;3.640;2023-02-15T05:24:53;102551.13;;;-0.05;100.00
74103;BME280;62853;46.166;3.640;2023-02-15T05:27:37;102559.88;;;0.02;100.00
74103;BME280;62853;46.166;3.640;2023-02-15T05:30:21;102550.44;;;0.06;100.00
74103;BME280;62853;46.166;3.640;2023-02-15T05:32:47;102557.34;;;0.07;100.00
74103;BME280;62853;46.166;3.640;2023-02-15T05:35:14;102539.97;;;-0.01;100.00
74103;BME280;62853;46.166;3.640;2023-02-15T05:37:40;102547.75;;;0.01;100.00
74103;BME280;62853;46.166;3.640;2023-02-15T05:40:06;102545.06;;;-0.05;100.00
74103;BME280;62853;46.166;3.640;2023-02-15T05:42:32;102535.50;;;-0.09;100.00
74103;BME280;62853;46.166;3.640;2023-02-15T05:44:57;102544.13;;;-0.10;100.00
74103;BME280;62853;46.166;3.640;2023-02-15T05:47:24;102543.22;;;-0.12;100.00
74103;BME280;62853;46.166;3.640;2023-02-15T05:49:50;102550.13;;;-0.13;100.00
74103;BME280;62853;46.166;3.640;2023-02-15T05:52:15;102546.53;;;-0.21;100.00
74103;BME280;62853;46.166;3.640;2023-02-15T05:54:41;102543.84;;;-0.26;100.00
74103;BME280;62853;46.166;3.640;2023-02-15T05:57:06;102542.00;;;-0.33;100.00
74103;BME280;62853;46.166;3.640;2023-02-15T05:59:31;102542.75;;;-0.40;100.00
74103;BME280;62853;46.166;3.640;2023-02-15T06:01:57;102558.31;;;-0.39;100.00
74103;BME280;62853;46.166;3.640;2023-02-15T06:04:22;102553.13;;;-0.40;100.00
74103;BME280;62853;46.166;3.640;2023-02-15T06:06:47;102550.41;;;-0.46;100.00
74103;BME280;62853;46.166;3.640;2023-02-15T06:09:13;102555.53;;;-0.48;100.00
74103;BME280;62853;46.166;3.640;2023-02-15T06:11:39;102556.44;;;-0.46;100.00
74103;BME280;62853;46.166;3.640;2023-02-15T06:14:04;102561.75;;;-0.40;100.00
74103;BME280;62853;46.166;3.640;2023-02-15T06:16:29;102561.78;;;-0.38;100.00
74103;BME280;62853;46.166;3.640;2023-02-15T06:18:55;102556.66;;;-0.35;100.00
74103;BME280;62853;46.166;3.640;2023-02-15T06:21:20;102560.03;;;-0.38;100.00
74103;BME280;62853;46.166;3.640;2023-02-15T06:23:46;102556.59;;;-0.38;100.00
74103;BME280;62853;46.166;3.640;2023-02-15T06:26:11;102554.88;;;-0.38;100.00
74103;BME280;62853;46.166;3.640;2023-02-15T06:28:36;102554.88;;;-0.38;100.00
74103;BME280;62853;46.166;3.640;2023-02-15T06:31:03;102556.59;;;-0.38;100.00
74103;BME280;62853;46.166;3.640;2023-02-15T06:33:28;102547.94;;;-0.40;100.00
74103;BME280;62853;46.166;3.640;2023-02-15T06:35:55;102549.59;;;-0.44;100.00
74103;BME280;62853;46.166;3.640;2023-02-15T06:38:21;102555.59;;;-0.45;100.00
74103;BME280;62853;46.166;3.640;2023-02-15T06:40:47;102563.31;;;-0.48;100.00
74103;BME280;62853;46.166;3.640;2023-02-15T06:43:12;102553.69;;;-0.55;100.00
74103;BME280;62853;46.166;3.640;2023-02-15T06:45:38;102546.75;;;-0.56;100.00
74103;BME280;62853;46.166;3.640;2023-02-15T06:48:03;102552.03;;;-0.51;100.00
74103;BME280;62853;46.166;3.640;2023-02-15T06:50:32;102543.41;;;-0.52;100.00
74103;BME280;62853;46.166;3.640;2023-02-15T06:52:58;102544.25;;;-0.51;100.00
74103;BME280;62853;46.166;3.640;2023-02-15T06:55:24;102552.19;;;-0.44;100.00
74103;BME280;62853;46.166;3.640;2023-02-15T06:57:49;102555.69;;;-0.40;100.00
74103;BME280;62853;46.166;3.640;2023-02-15T07:00:15;102542.69;;;-0.43;100.00
74103;BME280;62853;46.166;3.640;2023-02-15T07:02:43;102532.34;;;-0.43;100.00
74103;BME280;62853;46.166;3.640;2023-02-15T07:05:08;102544.44;;;-0.41;100.00
74103;BME280;62853;46.166;3.640;2023-02-15T07:07:34;102534.94;;;-0.43;100.00
74103;BME280;62853;46.166;3.640;2023-02-15T07:09:59;102536.66;;;-0.44;100.00
74103;BME280;62853;46.166;3.640;2023-02-15T07:12:24;102529.81;;;-0.40;100.00
74103;BME280;62853;46.166;3.640;2023-02-15T07:15:17;102520.44;;;-0.33;100.00
74103;BME280;62853;46.166;3.640;2023-02-15T07:17:43;102529.28;;;-0.21;100.00
74103;BME280;62853;46.166;3.640;2023-02-15T07:20:16;102530.19;;;-0.17;100.00
74103;BME280;62853;46.166;3.640;2023-02-15T07:22:42;102519.06;;;-0.13;100.00
74103;BME280;62853;46.166;3.640;2023-02-15T07:25:09;102531.19;;;-0.09;100.00
74103;BME280;62853;46.166;3.640;2023-02-15T07:27:35;102517.41;;;-0.08;100.00
74103;BME280;62853;46.166;3.640;2023-02-15T07:30:01;102527.06;;;0.03;100.00
74103;BME280;62853;46.166;3.640;2023-02-15T07:32:28;102528.06;;;0.11;100.00
74103;BME280;62853;46.166;3.640;2023-02-15T07:34:54;102517.81;;;0.17;100.00
74103;BME280;62853;46.166;3.640;2023-02-15T07:37:20;102513.53;;;0.21;100.00
74103;BME280;62853;46.166;3.640;2023-02-15T07:39:47;102514.53;;;0.30;100.00
74103;BME280;62853;46.166;3.640;2023-02-15T07:42:13;102512.81;;;0.29;100.00
74103;BME280;62853;46.166;3.640;2023-02-15T07:44:38;102524.25;;;0.45;100.00
74103;BME280;62853;46.166;3.640;2023-02-15T07:47:04;102520.91;;;0.51;100.00
74103;BME280;62853;46.166;3.640;2023-02-15T07:49:29;102518.34;;;0.55;100.00
74103;BME280;62853;46.166;3.640;2023-02-15T07:51:54;102508.94;;;0.62;100.00
74103;BME280;62853;46.166;3.640;2023-02-15T07:54:20;102514.22;;;0.68;100.00
74103;BME280;62853;46.166;3.640;2023-02-15T07:56:45;102516.84;;;0.71;100.00
74103;BME280;62853;46.166;3.640;2023-02-15T07:59:11;102511.75;;;0.78;100.00
74103;BME280;62853;46.166;3.640;2023-02-15T08:01:38;102505.66;;;0.77;100.00
74103;BME280;62853;46.166;3.640;2023-02-15T08:04:05;102517.09;;;0.90;100.00
74103;BME280;62853;46.166;3.640;2023-02-15T08:06:33;102515.47;;;0.98;100.00
74103;BME280;62853;46.166;3.640;2023-02-15T08:09:00;102507.72;;;1.04;100.00
74103;BME280;62853;46.166;3.640;2023-02-15T08:11:29;102518.28;;;1.18;100.00
74103;BME280;62853;46.166;3.640;2023-02-15T08:14:07;102510.56;;;1.26;100.00
74103;BME280;62853;46.166;3.640;2023-02-15T08:16:40;102513.25;;;1.34;100.00
74103;BME280;62853;46.166;3.640;2023-02-15T08:19:30;102513.31;;;1.40;100.00
74103;BME280;62853;46.166;3.640;2023-02-15T08:22:02;102508.16;;;1.43;100.00
74103;BME280;62853;46.166;3.640;2023-02-15T08:24:31;102493.44;;;1.42;100.00
74103;BME280;62853;46.166;3.640;2023-02-15T08:26:57;102501.34;;;1.54;100.00
74103;BME280;62853;46.166;3.640;2023-02-15T08:29:25;102497.09;;;1.62;100.00
74103;BME280;62853;46.166;3.640;2023-02-15T08:32:00;102504.13;;;1.74;100.00
74103;BME280;62853;46.166;3.640;2023-02-15T08:34:29;102492.94;;;1.84;100.00
74103;BME280;62853;46.166;3.640;2023-02-15T08:36:54;102500.00;;;2.01;100.00
74103;BME280;62853;46.166;3.640;2023-02-15T08:39:20;102497.53;;;2.16;100.00
74103;BME280;62853;46.166;3.640;2023-02-15T08:41:47;102495.84;;;2.25;100.00
74103;BME280;62853;46.166;3.640;2023-02-15T08:44:15;102491.56;;;2.37;100.00
74103;BME280;62853;46.166;3.640;2023-02-15T08:46:42;102506.44;;;2.57;100.00
74103;BME280;62853;46.166;3.640;2023-02-15T08:49:08;102503.03;;;2.69;100.00
74103;BME280;62853;46.166;3.640;2023-02-15T08:51:36;102507.41;;;2.81;100.00
74103;BME280;62853;46.166;3.640;2023-02-15T08:54:04;102497.03;;;2.91;100.00
74103;BME280;62853;46.166;3.640;2023-02-15T08:56:33;102491.00;;;2.98;100.00
74103;BME280;62853;46.166;3.640;2023-02-15T08:59:01;102492.78;;;3.09;100.00
74103;BME280;62853;46.166;3.640;2023-02-15T09:01:28;102484.09;;;3.13;100.00
74103;BME280;62853;46.166;3.640;2023-02-15T09:03:56;102494.53;;;3.28;100.00
74103;BME280;62853;46.166;3.640;2023-02-15T09:06:23;102473.72;;;3.28;100.00
74103;BME280;62853;46.166;3.640;2023-02-15T09:08:49;102482.44;;;3.43;100.00
74103;BME280;62853;46.166;3.640;2023-02-15T09:11:16;102484.19;;;3.56;100.00
74103;BME280;62853;46.166;3.640;2023-02-15T09:13:48;102477.25;;;3.64;100.00
74103;BME280;62853;46.166;3.640;2023-02-15T09:16:14;102468.53;;;3.68;100.00
74103;BME280;62853;46.166;3.640;2023-02-15T09:18:43;102462.47;;;3.69;100.00
74103;BME280;62853;46.166;3.640;2023-02-15T09:21:20;102462.47;;;3.76;100.00
74103;BME280;62853;46.166;3.640;2023-02-15T09:23:48;102465.94;;;3.82;100.00
74103;BME280;62853;46.166;3.640;2023-02-15T09:26:18;102458.97;;;3.89;100.00
74103;BME280;62853;46.166;3.640;2023-02-15T09:28:44;102459.84;;;3.96;100.00
74103;BME280;62853;46.166;3.640;2023-02-15T09:31:13;102451.13;;;4.01;100.00
74103;BME280;62853;46.166;3.640;2023-02-15T09:33:41;102449.38;;;4.09;100.00
74103;BME280;62853;46.166;3.640;2023-02-15T09:36:21;102448.53;;;4.18;100.00
74103;BME280;62853;46.166;3.640;2023-02-15T09:38:52;102456.28;;;4.38;100.00
74103;BME280;62853;46.166;3.640;2023-02-15T09:47:32;102464.69;;;5.03;100.00
74103;BME280;62853;46.166;3.640;2023-02-15T09:55:57;102464.81;;;6.07;100.00
74103;BME280;62853;46.166;3.640;2023-02-15T09:58:45;102461.91;;;6.33;100.00
74103;BME280;62853;46.166;3.640;2023-02-15T10:07:03;102463.13;;;6.79;100.00
74103;BME280;62853;46.166;3.640;2023-02-15T10:14:56;102461.59;;;7.26;100.00
74103;BME280;62853;46.166;3.640;2023-02-15T10:17:48;102463.28;;;7.31;100.00
74103;BME280;62853;46.166;3.640;2023-02-15T10:20:28;102464.28;;;7.23;100.00
74103;BME280;62853;46.166;3.640;2023-02-15T10:28:45;102458.44;;;7.03;100.00
74103;BME280;62853;46.166;3.640;2023-02-15T10:34:20;102470.47;;;7.16;100.00
74103;BME280;62853;46.166;3.640;2023-02-15T10:50:28;102437.56;;;7.56;100.00
74103;BME280;62853;46.166;3.640;2023-02-15T11:06:46;102429.72;;;8.04;100.00
74103;BME280;62853;46.166;3.640;2023-02-15T11:09:18;102425.09;;;8.17;100.00
74103;BME280;62853;46.166;3.640;2023-02-15T11:11:49;102425.97;;;8.17;100.00
74103;BME280;62853;46.166;3.640;2023-02-15T11:14:34;102424.22;;;8.18;100.00
74103;BME280;62853;46.166;3.640;2023-02-15T11:17:09;102423.16;;;8.28;100.00
74103;BME280;62853;46.166;3.640;2023-02-15T11:19:47;102408.19;;;8.32;100.00
74103;BME280;62853;46.166;3.640;2023-02-15T11:22:16;102402.88;;;8.35;100.00
74103;BME280;62853;46.166;3.640;2023-02-15T11:24:43;102421.25;;;8.36;100.00
74103;BME280;62853;46.166;3.640;2023-02-15T11:29:59;102396.28;;;8.59;100.00
74103;BME280;62853;46.166;3.640;2023-02-15T11:32:46;102397.44;;;8.86;100.00
74103;BME280;62853;46.166;3.640;2023-02-15T11:38:11;102397.78;;;9.08;100.00
74103;BME280;62853;46.166;3.640;2023-02-15T11:40:47;102386.22;;;9.16;100.00
74103;BME280;62853;46.166;3.640;2023-02-15T11:43:21;102385.25;;;9.21;100.00
74103;BME280;62853;46.166;3.640;2023-02-15T11:45:50;102379.88;;;9.26;100.00
74103;BME280;62853;46.166;3.640;2023-02-15T11:48:15;102375.25;;;9.34;100.00
74103;BME280;62853;46.166;3.640;2023-02-15T11:50:42;102371.66;;;9.38;100.00
74103;BME280;62853;46.166;3.640;2023-02-15T11:53:16;102373.38;;;9.39;100.00
74103;BME280;62853;46.166;3.640;2023-02-15T11:55:45;102364.59;;;9.40;100.00
74103;BME280;62853;46.166;3.640;2023-02-15T12:00:58;102353.75;;;9.53;100.00
74103;BME280;62853;46.166;3.640;2023-02-15T12:03:51;102365.66;;;9.67;100.00
74103;BME280;62853;46.166;3.640;2023-02-15T12:06:24;102363.72;;;9.74;100.00
74103;BME280;62853;46.166;3.640;2023-02-15T12:09:05;102361.03;;;9.76;100.00
74103;BME280;62853;46.166;3.640;2023-02-15T12:11:37;102344.38;;;9.77;100.00
74103;BME280;62853;46.166;3.640;2023-02-15T12:14:10;102350.19;;;9.88;100.00
74103;BME280;62853;46.166;3.640;2023-02-15T12:19:16;102349.41;;;9.84;100.00
74103;BME280;62853;46.166;3.640;2023-02-15T12:21:44;102341.66;;;9.80;100.00
74103;BME280;62853;46.166;3.640;2023-02-15T12:24:24;102339.84;;;9.82;100.00
74103;BME280;62853;46.166;3.640;2023-02-15T12:29:26;102345.19;;;9.79;100.00
74103;BME280;62853;46.166;3.640;2023-02-15T12:31:53;102342.44;;;9.83;100.00
74103;BME280;62853;46.166;3.640;2023-02-15T12:34:37;102337.88;;;9.90;100.00
74103;BME280;62853;46.166;3.640;2023-02-15T12:37:14;102326.31;;;9.94;100.00
74103;BME280;62853;46.166;3.640;2023-02-15T12:40:00;102318.34;;;9.97;100.00
74103;BME280;62853;46.166;3.640;2023-02-15T12:42:27;102322.47;;;10.06;100.00
74103;BME280;62853;46.166;3.640;2023-02-15T12:45:02;102320.66;;;10.08;100.00
74103;BME280;62853;46.166;3.640;2023-02-15T12:47:30;102317.13;;;10.09;100.00
74103;BME280;62853;46.166;3.640;2023-02-15T12:50:10;102316.88;;;10.17;100.00
74103;BME280;62853;46.166;3.640;2023-02-15T12:52:43;102315.00;;;10.22;100.00
74103;BME280;62853;46.166;3.640;2023-02-15T12:55:24;102299.97;;;10.26;100.00
74103;BME280;62853;46.166;3.640;2023-02-15T12:58:24;102301.59;;;10.30;100.00
74103;BME280;62853;46.166;3.640;2023-02-15T13:01:10;102304.88;;;10.39;100.00
74103;BME280;62853;46.166;3.640;2023-02-15T13:04:03;102303.63;;;10.51;100.00
74103;BME280;62853;46.166;3.640;2023-02-15T13:06:32;102302.41;;;10.61;100.00
74103;BME280;62853;46.166;3.640;2023-02-15T13:09:25;102295.75;;;10.78;100.00
74103;BME280;62853;46.166;3.640;2023-02-15T13:11:53;102296.47;;;10.83;100.00
74103;BME280;62853;46.166;3.640;2023-02-15T13:16:46;102285.94;;;10.83;100.00
74103;BME280;62853;46.166;3.640;2023-02-15T13:19:16;102284.94;;;10.86;100.00
74103;BME280;62853;46.166;3.640;2023-02-15T13:21:45;102278.88;;;10.84;100.00
74103;BME280;62853;46.166;3.640;2023-02-15T13:24:18;102281.28;;;10.91;100.00
74103;BME280;62853;46.166;3.640;2023-02-15T13:26:47;102280.44;;;10.89;100.00
74103;BME280;62853;46.166;3.640;2023-02-15T13:29:22;102271.75;;;10.86;100.00
74103;BME280;62853;46.166;3.640;2023-02-15T13:31:50;102271.72;;;10.87;100.00
74103;BME280;62853;46.166;3.640;2023-02-15T13:34:33;102268.09;;;10.91;100.00
74103;BME280;62853;46.166;3.640;2023-02-15T13:40:32;102268.84;;;10.95;100.00
74103;BME280;62853;46.166;3.640;2023-02-15T13:42:32;102267.06;;;10.95;100.00
74103;BME280;62853;46.166;3.640;2023-02-15T13:55:50;102267.66;;;11.04;100.00
74103;BME280;62853;46.166;3.640;2023-02-15T13:58:30;102265.78;;;11.07;100.00
74103;BME280;62853;46.166;3.640;2023-02-15T14:01:17;102263.03;;;11.10;100.00
74103;BME280;62853;46.166;3.640;2023-02-15T14:04:08;102251.69;;;11.08;100.00
74103;BME280;62853;46.166;3.640;2023-02-15T14:07:00;102251.91;;;11.02;100.00
74103;BME280;62853;46.166;3.640;2023-02-15T14:09:53;102260.94;;;10.95;100.00
74103;BME280;62853;46.166;3.640;2023-02-15T14:12:42;102264.63;;;10.89;100.00
74103;BME280;62853;46.166;3.640;2023-02-15T14:23:42;102272.09;;;10.76;100.00
74103;BME280;62853;46.166;3.640;2023-02-15T14:31:09;102280.59;;;10.58;100.00
74103;BME280;62853;46.166;3.640;2023-02-15T14:33:41;102274.59;;;10.53;100.00
74103;BME280;62853;46.166;3.640;2023-02-15T14:36:11;102289.44;;;10.55;100.00
74103;BME280;62853;46.166;3.640;2023-02-15T14:39:02;102287.78;;;10.53;100.00
74103;BME280;62853;46.166;3.640;2023-02-15T14:41:44;102288.66;;;10.52;100.00
74103;BME280;62853;46.166;3.640;2023-02-15T14:46:54;102279.88;;;10.53;100.00
74103;BME280;62853;46.166;3.640;2023-02-15T15:04:52;102271.59;;;10.35;100.00
74103;BME280;62853;46.166;3.640;2023-02-15T15:09:57;102275.28;;;10.30;100.00
74103;BME280;62853;46.166;3.640;2023-02-15T15:14:52;102274.41;;;10.29;100.00
74103;BME280;62853;46.166;3.640;2023-02-15T15:25:44;102276.69;;;10.12;100.00
74103;BME280;62853;46.166;3.640;2023-02-15T15:33:46;102275.13;;;10.04;100.00
74103;BME280;62853;46.166;3.640;2023-02-15T15:49:32;102274.13;;;9.79;100.00
74103;BME280;62853;46.166;3.640;2023-02-15T15:52:02;102269.91;;;9.73;100.00
74103;BME280;62853;46.166;3.640;2023-02-15T15:54:32;102276.13;;;9.71;100.00
74103;BME280;62853;46.166;3.640;2023-02-15T15:57:02;102267.50;;;9.65;100.00
74103;BME280;62853;46.166;3.640;2023-02-15T15:59:30;102256.25;;;9.60;100.00
74103;BME280;62853;46.166;3.640;2023-02-15T16:02:03;102260.84;;;9.52;100.00
74103;BME280;62853;46.166;3.640;2023-02-15T16:04:31;102258.38;;;9.46;100.00
74103;BME280;62853;46.166;3.640;2023-02-15T16:07:14;102266.38;;;9.43;100.00